createdAt,value
2023-08-13T00:03:07.863Z,53.05
2023-08-13T00:08:09.613Z,52.70
2023-08-13T00:13:11.811Z,52.59
2023-08-13T00:18:13.448Z,52.62
2023-08-13T00:23:15.073Z,52.58
2023-08-13T00:28:16.756Z,52.66
2023-08-13T00:33:18.325Z,52.88
2023-08-13T00:38:20.196Z,52.69
2023-08-13T00:43:22.367Z,52.82
2023-08-13T00:48:24.097Z,52.80
2023-08-13T00:53:25.863Z,52.99
2023-08-13T00:58:27.467Z,52.87
2023-08-13T01:03:29.136Z,52.69
2023-08-13T01:08:53.112Z,52.83
2023-08-13T01:14:12.193Z,52.90
2023-08-13T01:19:14.434Z,52.76
2023-08-13T01:24:15.985Z,53.07
2023-08-13T01:29:53.619Z,53.21
2023-08-13T01:34:55.535Z,53.02
2023-08-13T01:39:57.399Z,52.95
2023-08-13T01:44:59.136Z,53.12
2023-08-13T01:50:00.670Z,53.58
2023-08-13T01:55:03.772Z,53.44
2023-08-13T02:00:08.382Z,52.94
2023-08-13T02:05:12.871Z,53.11
2023-08-13T02:10:14.993Z,53.32
2023-08-13T02:15:16.568Z,53.26
2023-08-13T02:20:20.996Z,53.23
2023-08-13T02:25:22.664Z,53.03
2023-08-13T02:30:24.290Z,53.15
2023-08-13T02:35:25.862Z,53.49
2023-08-13T02:40:27.485Z,53.40
2023-08-13T02:45:29.420Z,53.51
2023-08-13T02:50:32.034Z,53.68
2023-08-13T02:55:33.604Z,53.26
2023-08-13T03:00:35.131Z,53.50
2023-08-13T03:05:36.752Z,53.41
2023-08-13T03:10:38.385Z,53.22
2023-08-13T03:15:40.284Z,53.21
2023-08-13T03:20:42.489Z,53.37
2023-08-13T03:25:44.266Z,53.24
2023-08-13T03:30:45.948Z,53.55
2023-08-13T03:35:47.541Z,53.56
2023-08-13T03:40:49.186Z,53.59
2023-08-13T03:45:50.938Z,53.66
2023-08-13T03:50:52.716Z,53.72
2023-08-13T03:55:54.353Z,53.64
2023-08-13T04:00:56.818Z,54.00
2023-08-13T04:05:59.368Z,54.08
2023-08-13T04:11:01.247Z,54.14
2023-08-13T04:16:02.913Z,54.16
2023-08-13T04:21:04.958Z,54.23
2023-08-13T04:26:06.601Z,54.47
2023-08-13T04:31:08.776Z,54.63
2023-08-13T04:36:12.576Z,54.60
2023-08-13T04:41:14.412Z,54.94
2023-08-13T04:46:18.221Z,54.92
2023-08-13T04:51:28.842Z,55.01
2023-08-13T04:56:31.575Z,55.28
2023-08-13T05:01:34.605Z,55.24
2023-08-13T05:06:37.673Z,55.61
2023-08-13T05:11:39.890Z,55.63
2023-08-13T05:16:42.131Z,55.81
2023-08-13T05:21:43.758Z,55.88
2023-08-13T05:26:47.384Z,56.08
2023-08-13T05:31:51.799Z,56.06
2023-08-13T05:36:53.602Z,56.12
2023-08-13T05:41:55.219Z,56.16
2023-08-13T05:46:56.858Z,56.11
2023-08-13T05:51:58.501Z,56.40
2023-08-13T05:57:00.028Z,56.49
2023-08-13T06:02:01.590Z,56.17
2023-08-13T06:07:04.850Z,56.20
2023-08-13T06:12:07.359Z,56.52
2023-08-13T06:17:14.901Z,56.54
2023-08-13T06:22:17.361Z,56.63
2023-08-13T06:27:19.384Z,56.69
2023-08-13T06:32:20.972Z,56.63
2023-08-13T06:37:22.652Z,56.47
2023-08-13T06:42:24.561Z,56.38
2023-08-13T06:47:26.237Z,56.51
2023-08-13T06:52:28.221Z,56.22
2023-08-13T06:57:29.746Z,56.17
2023-08-13T07:02:31.800Z,56.39
2023-08-13T07:07:36.384Z,56.36
2023-08-13T07:12:38.025Z,56.15
2023-08-13T07:17:39.592Z,56.14
2023-08-13T07:22:45.880Z,56.10
2023-08-13T07:27:47.423Z,56.36
2023-08-13T07:32:49.984Z,56.54
2023-08-13T07:37:51.924Z,56.32
2023-08-13T07:43:00.100Z,56.50
2023-08-13T07:48:01.639Z,56.63
2023-08-13T07:53:03.255Z,56.56
2023-08-13T07:58:05.065Z,56.12
2023-08-13T08:03:06.676Z,56.13
2023-08-13T08:08:08.397Z,56.15
2023-08-13T08:13:09.952Z,55.67
2023-08-13T08:18:11.594Z,55.60
2023-08-13T08:23:15.116Z,55.90
2023-08-13T08:28:16.817Z,55.37
2023-08-13T08:33:18.601Z,55.61
2023-08-13T08:38:20.241Z,55.53
2023-08-13T08:43:24.966Z,55.63
2023-08-13T08:48:32.961Z,55.45
2023-08-13T08:53:35.900Z,55.17
2023-08-13T08:58:37.436Z,55.20
2023-08-13T09:03:39.160Z,55.11
2023-08-13T09:08:41.783Z,55.20
2023-08-13T09:13:50.661Z,55.14
2023-08-13T09:19:04.379Z,54.97
2023-08-13T09:24:15.072Z,55.16
2023-08-13T09:29:19.841Z,55.15
2023-08-13T09:34:22.244Z,55.30
2023-08-13T09:39:25.510Z,54.99
2023-08-13T09:44:29.274Z,55.25
2023-08-13T09:49:34.476Z,54.99
2023-08-13T09:54:51.319Z,55.27
2023-08-13T09:59:54.953Z,55.06
2023-08-13T10:04:57.212Z,55.36
2023-08-13T10:10:07.954Z,55.10
2023-08-13T10:15:10.547Z,55.52
2023-08-13T10:20:12.324Z,55.65
2023-08-13T10:25:30.864Z,55.57
2023-08-13T10:30:33.747Z,55.81
2023-08-13T10:35:38.803Z,55.73
2023-08-13T10:40:59.582Z,55.34
2023-08-13T10:46:05.105Z,54.89
2023-08-13T10:51:06.854Z,54.42
2023-08-13T10:56:08.644Z,54.46
2023-08-13T11:01:10.315Z,54.69
2023-08-13T11:06:13.389Z,55.03
2023-08-13T11:11:18.989Z,55.04
2023-08-13T11:16:20.674Z,55.71
2023-08-13T11:21:25.172Z,55.71
2023-08-13T11:26:26.813Z,56.25
2023-08-13T11:31:28.351Z,55.74
2023-08-13T11:36:29.940Z,55.56
2023-08-13T11:41:31.521Z,55.46
2023-08-13T11:46:52.436Z,55.59
2023-08-13T11:51:57.175Z,55.70
2023-08-13T11:56:58.793Z,55.33
2023-08-13T12:02:01.976Z,54.83
2023-08-13T12:07:09.706Z,54.17
2023-08-13T12:12:11.291Z,54.04
2023-08-13T12:17:13.833Z,54.05
2023-08-13T12:22:15.852Z,54.09
2023-08-13T12:27:18.048Z,52.95
2023-08-13T12:32:19.568Z,52.65
2023-08-13T12:37:21.142Z,52.73
2023-08-13T12:42:23.046Z,52.61
2023-08-13T12:47:24.658Z,51.61
2023-08-13T12:52:26.524Z,51.69
2023-08-13T12:57:28.811Z,51.41
2023-08-13T13:02:30.470Z,51.38
2023-08-13T13:07:32.192Z,51.07
2023-08-13T13:12:33.786Z,50.10
2023-08-13T13:17:35.433Z,49.33
2023-08-13T13:22:38.129Z,49.48
2023-08-13T13:27:40.825Z,49.65
2023-08-13T13:32:42.453Z,49.57
2023-08-13T13:37:44.009Z,49.21
2023-08-13T13:42:45.712Z,49.21
2023-08-13T13:47:47.754Z,49.54
2023-08-13T13:52:49.621Z,49.21
2023-08-13T13:57:51.192Z,48.24
2023-08-13T14:02:52.814Z,48.32
2023-08-13T14:07:54.764Z,48.39
2023-08-13T14:12:56.316Z,48.16
2023-08-13T14:17:57.894Z,47.35
2023-08-13T14:22:59.495Z,46.93
2023-08-13T14:28:01.208Z,46.85
2023-08-13T14:33:02.803Z,46.92
2023-08-13T14:38:04.554Z,46.91
2023-08-13T14:43:06.105Z,46.97
2023-08-13T14:48:07.907Z,46.84
2023-08-13T14:53:09.486Z,46.81
2023-08-13T14:58:11.158Z,46.72
2023-08-13T15:03:13.346Z,46.65
2023-08-13T15:08:15.028Z,45.98
2023-08-13T15:13:16.585Z,46.08
2023-08-13T15:18:18.823Z,46.02
2023-08-13T15:23:21.696Z,46.57
2023-08-13T15:28:23.310Z,46.78
2023-08-13T15:33:25.503Z,47.03
2023-08-13T15:38:28.049Z,47.17
2023-08-13T15:43:29.598Z,46.94
2023-08-13T15:48:31.211Z,47.42
2023-08-13T15:53:32.774Z,47.04
2023-08-13T15:58:36.662Z,46.92
2023-08-13T16:03:40.430Z,47.41
2023-08-13T16:08:42.023Z,47.06
2023-08-13T16:13:43.908Z,47.10
2023-08-13T16:18:45.641Z,47.13
2023-08-13T16:23:50.428Z,47.43
2023-08-13T16:28:56.639Z,47.46
2023-08-13T16:33:58.751Z,47.50
2023-08-13T16:39:00.841Z,47.56
2023-08-13T16:44:02.512Z,47.35
2023-08-13T16:49:04.517Z,47.03
2023-08-13T16:54:06.678Z,47.25
2023-08-13T16:59:08.399Z,47.23
2023-08-13T17:04:09.929Z,47.43
2023-08-13T17:09:12.634Z,47.35
2023-08-13T17:14:14.842Z,47.23
2023-08-13T17:19:16.909Z,46.81
2023-08-13T17:24:18.943Z,46.29
2023-08-13T17:29:20.982Z,46.35
2023-08-13T17:34:22.543Z,46.02
2023-08-13T17:39:25.674Z,45.67
2023-08-13T17:44:31.176Z,45.69
2023-08-13T17:49:32.768Z,46.06
2023-08-13T17:54:34.302Z,45.94
2023-08-13T17:59:35.842Z,46.32
2023-08-13T18:04:37.706Z,46.39
2023-08-13T18:09:39.351Z,46.52
2023-08-13T18:14:40.948Z,46.89
2023-08-13T18:19:42.481Z,46.86
2023-08-13T18:24:44.112Z,47.15
2023-08-13T18:29:45.713Z,46.91
2023-08-13T18:34:47.377Z,47.29
2023-08-13T18:39:49.932Z,47.25
2023-08-13T18:44:51.952Z,47.62
2023-08-13T18:49:53.613Z,47.32
2023-08-13T18:54:55.241Z,47.74
2023-08-13T18:59:56.982Z,47.76
2023-08-13T19:04:58.525Z,47.60
2023-08-13T19:10:00.084Z,47.95
2023-08-13T19:15:01.750Z,47.80
2023-08-13T19:20:03.668Z,47.87
2023-08-13T19:25:05.809Z,47.74
2023-08-13T19:30:08.898Z,47.57
2023-08-13T19:35:10.654Z,47.71
2023-08-13T19:40:12.592Z,47.87
2023-08-13T19:45:14.231Z,47.97
2023-08-13T19:50:15.767Z,48.05
2023-08-13T19:55:17.465Z,48.03
2023-08-13T20:00:19.080Z,48.19
2023-08-13T20:05:20.629Z,48.00
2023-08-13T20:10:22.302Z,48.17
2023-08-13T20:15:24.130Z,48.80
2023-08-13T20:20:25.993Z,48.81
2023-08-13T20:25:27.916Z,49.06
2023-08-13T20:30:29.608Z,48.73
2023-08-13T20:35:31.462Z,48.92
2023-08-13T20:40:34.059Z,49.03
2023-08-13T20:45:36.425Z,49.06
2023-08-13T20:50:38.604Z,49.58
2023-08-13T20:55:40.832Z,49.57
2023-08-13T21:00:43.363Z,49.35
2023-08-13T21:05:45.665Z,49.80
2023-08-13T21:10:47.722Z,49.65
2023-08-13T21:15:49.710Z,49.63
2023-08-13T21:20:51.925Z,50.12
2023-08-13T21:25:53.795Z,49.86
2023-08-13T21:30:55.902Z,50.04
2023-08-13T21:35:57.940Z,50.27
2023-08-13T21:40:59.892Z,50.00
2023-08-13T21:46:01.587Z,50.08
2023-08-13T21:51:03.552Z,50.34
2023-08-13T21:56:05.113Z,50.33
2023-08-13T22:01:06.651Z,50.36
2023-08-13T22:06:08.212Z,50.52
2023-08-13T22:11:09.802Z,50.49
2023-08-13T22:16:11.401Z,50.16
2023-08-13T22:21:13.321Z,50.70
2023-08-13T22:26:18.314Z,50.55
2023-08-13T22:31:20.711Z,50.67
2023-08-13T22:36:22.879Z,50.83
2023-08-13T22:41:25.136Z,51.05
2023-08-13T22:46:26.834Z,50.95
2023-08-13T22:51:28.387Z,50.98
2023-08-13T22:56:29.923Z,51.22
2023-08-13T23:01:31.508Z,51.48
2023-08-13T23:06:33.166Z,51.41
2023-08-13T23:11:34.719Z,51.53
2023-08-13T23:16:37.033Z,51.34
2023-08-13T23:21:39.005Z,51.41
2023-08-13T23:26:40.564Z,51.78
2023-08-13T23:31:42.124Z,51.64
2023-08-13T23:36:43.740Z,51.67
2023-08-13T23:41:51.910Z,51.67
2023-08-13T23:46:55.136Z,52.02
2023-08-13T23:51:56.732Z,52.30
2023-08-13T23:56:58.303Z,52.63
